Time;durP1;ratioP1;P1;durP2;ratioP2;P2;SDS_P1;SDS_P2;PMS_P1;PMS_P2;Temp;Humidity;BMP_temperature;BMP_pressure;BME280_temperature;BME280_humidity;BME280_pressure;Samples;Min_cycle;Max_cycle;Signal;HPM_P1;HPM_P2
2022/03/01 00:01:54;;;;;;;3.35;3.15;;;20.60;39.80;;;;;;5081595;28;43959;-62
2022/03/01 00:04:21;;;;;;;3.22;3.03;;;20.60;39.70;;;;;;5083660;27;43686;-61
2022/03/01 00:06:49;;;;;;;3.78;3.42;;;20.60;39.80;;;;;;5080108;27;43515;-61
2022/03/01 00:09:16;;;;;;;3.45;3.20;;;20.50;39.80;;;;;;5080913;28;43455;-61
2022/03/01 00:11:44;;;;;;;3.25;2.95;;;20.50;39.80;;;;;;5083684;27;43884;-61
2022/03/01 00:14:12;;;;;;;3.00;2.80;;;20.50;39.80;;;;;;5064217;28;45128;-62
2022/03/01 00:16:40;;;;;;;3.47;3.17;;;20.50;39.90;;;;;;5080679;27;43424;-62
2022/03/01 00:19:07;;;;;;;3.50;3.20;;;20.50;39.90;;;;;;5080109;28;43442;-62
2022/03/01 00:21:35;;;;;;;3.17;2.97;;;20.50;39.90;;;;;;5080361;28;43808;-62
2022/03/01 00:24:02;;;;;;;3.50;3.20;;;20.50;40.00;;;;;;5081012;28;44755;-62
2022/03/01 00:26:30;;;;;;;3.65;3.35;;;20.40;39.80;;;;;;5080218;27;43418;-62
2022/03/01 00:28:57;;;;;;;3.20;3.00;;;20.40;39.90;;;;;;5082602;28;43482;-62
2022/03/01 00:31:25;;;;;;;3.40;3.15;;;20.40;39.90;;;;;;5083290;27;43615;-62
2022/03/01 00:33:52;;;;;;;3.40;3.20;;;20.40;40.00;;;;;;5081394;28;44101;-61
2022/03/01 00:36:20;;;;;;;3.42;3.22;;;20.40;39.90;;;;;;5064556;28;43451;-61
2022/03/01 00:38:47;;;;;;;3.38;3.08;;;20.30;39.90;;;;;;5080476;28;43459;-62
2022/03/01 00:41:15;;;;;;;3.10;2.90;;;20.30;40.00;;;;;;5083800;27;43801;-61
2022/03/01 00:43:42;;;;;;;3.50;3.20;;;20.30;40.00;;;;;;5081442;28;43536;-62
2022/03/01 00:46:09;;;;;;;3.08;2.88;;;20.30;40.00;;;;;;5078679;28;43466;-62
2022/03/01 00:48:37;;;;;;;3.40;3.10;;;20.30;40.00;;;;;;5080253;27;43569;-62
2022/03/01 00:51:04;;;;;;;3.50;3.20;;;20.20;40.00;;;;;;5083578;27;44644;-62
2022/03/01 00:53:32;;;;;;;3.30;3.10;;;20.20;40.00;;;;;;5079963;27;43550;-61
2022/03/01 00:56:04;;;;;;;3.58;3.33;;;20.20;40.00;;;;;;5081134;27;43422;-62
2022/03/01 00:58:31;;;;;;;3.20;3.00;;;20.20;40.00;;;;;;5083327;28;43487;-62
2022/03/01 01:00:59;;;;;;;3.72;3.42;;;20.20;40.00;;;;;;5079939;27;44960;-62
2022/03/01 01:03:27;;;;;;;3.47;3.17;;;20.20;40.00;;;;;;5079708;27;43508;-62
2022/03/01 01:05:54;;;;;;;3.42;3.13;;;20.10;40.00;;;;;;5081913;27;43532;-62
2022/03/01 01:08:22;;;;;;;3.50;3.20;;;20.20;40.10;;;;;;5083068;28;43550;-62
2022/03/01 01:10:50;;;;;;;3.65;3.30;;;20.10;40.00;;;;;;5079608;27;44057;-61
2022/03/01 01:13:17;;;;;;;3.40;3.20;;;20.10;40.00;;;;;;5079188;28;43445;-61
2022/03/01 01:15:45;;;;;;;3.33;3.03;;;20.10;40.00;;;;;;5078835;28;43721;-62
2022/03/01 01:18:12;;;;;;;2.95;2.75;;;20.10;40.00;;;;;;5082593;28;43533;-62
2022/03/01 01:20:40;;;;;;;3.50;3.20;;;20.10;40.00;;;;;;5082591;27;44883;-61
2022/03/01 01:23:08;;;;;;;3.45;3.15;;;20.10;40.10;;;;;;5079504;27;43700;-62
2022/03/01 01:25:35;;;;;;;3.38;3.08;;;20.00;39.90;;;;;;5082955;27;43406;-62
2022/03/01 01:28:04;;;;;;;3.25;2.95;;;20.00;40.00;;;;;;5079283;27;43587;-62
2022/03/01 01:30:33;;;;;;;3.90;3.60;;;20.00;40.00;;;;;;5082699;27;43785;-62
2022/03/01 01:33:01;;;;;;;3.30;3.10;;;20.00;40.00;;;;;;5082277;27;43968;-62
2022/03/01 01:35:33;;;;;;;3.67;3.38;;;20.00;40.10;;;;;;5079069;28;43544;-62
2022/03/01 01:38:01;;;;;;;3.50;3.28;;;20.00;40.00;;;;;;5081042;28;43461;-61
2022/03/01 01:40:30;;;;;;;3.50;3.20;;;19.90;40.00;;;;;;5082613;27;44775;-62
2022/03/01 01:42:59;;;;;;;3.10;2.90;;;19.90;40.00;;;;;;5076436;28;43443;-62
2022/03/01 01:45:27;;;;;;;3.53;3.25;;;19.90;40.00;;;;;;5079391;27;43481;-61
2022/03/01 01:47:59;;;;;;;3.45;3.15;;;19.90;40.00;;;;;;5081146;28;43791;-61
2022/03/01 01:50:28;;;;;;;3.35;3.05;;;19.90;40.10;;;;;;5079238;27;44698;-62
2022/03/01 01:52:56;;;;;;;3.50;3.20;;;19.90;40.00;;;;;;5079627;27;43428;-62
2022/03/01 01:55:26;;;;;;;3.60;3.30;;;19.80;40.00;;;;;;5080491;28;43601;-62
2022/03/01 01:57:57;;;;;;;3.55;3.25;;;19.80;40.10;;;;;;5078825;27;43514;-62
2022/03/01 02:00:26;;;;;;;3.35;3.08;;;19.80;40.00;;;;;;5082256;27;43781;-61
2022/03/01 02:02:56;;;;;;;3.00;2.80;;;19.80;40.10;;;;;;5078110;27;43521;-61
2022/03/01 02:05:26;;;;;;;3.78;3.47;;;19.80;40.10;;;;;;5085703;27;43539;-62
2022/03/01 02:07:54;;;;;;;3.53;3.22;;;19.80;40.10;;;;;;5081948;28;43896;-62
2022/03/01 02:10:21;;;;;;;3.55;3.33;;;19.80;40.10;;;;;;5085751;28;44948;-62
2022/03/01 02:12:49;;;;;;;3.60;3.30;;;19.70;40.00;;;;;;5080215;28;43420;-62
2022/03/01 02:15:17;;;;;;;3.30;3.10;;;19.70;40.00;;;;;;5082172;27;43495;-62
2022/03/01 02:17:45;;;;;;;3.10;2.90;;;19.70;40.00;;;;;;5085489;27;43439;-62
2022/03/01 02:20:20;;;;;;;3.30;3.00;;;19.70;40.10;;;;;;5082763;27;46079;-61
2022/03/01 02:22:53;;;;;;;3.53;3.20;;;19.70;40.10;;;;;;5083774;28;43399;-61
2022/03/01 02:25:21;;;;;;;3.28;3.08;;;19.60;40.70;;;;;;5085489;27;43476;-61
2022/03/01 02:27:49;;;;;;;3.60;3.30;;;19.60;40.10;;;;;;5085347;27;43401;-62
2022/03/01 02:30:16;;;;;;;3.42;3.20;;;19.60;40.10;;;;;;5083425;27;44036;-62
2022/03/01 02:32:44;;;;;;;3.80;3.20;;;19.60;40.10;;;;;;5085487;28;43708;-62
2022/03/01 02:35:12;;;;;;;3.55;3.30;;;19.60;40.10;;;;;;5082613;28;43439;-62
2022/03/01 02:37:41;;;;;;;3.78;3.47;;;19.60;40.10;;;;;;5082309;27;43548;-61
2022/03/01 02:40:09;;;;;;;4.10;3.80;;;19.60;40.20;;;;;;5083007;27;43807;-61
2022/03/01 02:42:38;;;;;;;3.92;3.63;;;19.50;40.10;;;;;;5083751;28;43517;-62
2022/03/01 02:45:09;;;;;;;3.70;3.40;;;19.50;40.10;;;;;;5081827;27;43491;-62
2022/03/01 02:47:37;;;;;;;3.75;3.45;;;19.50;40.10;;;;;;5085176;28;43500;-61
2022/03/01 02:50:06;;;;;;;3.40;3.20;;;19.50;40.20;;;;;;5081838;27;43885;-62
2022/03/01 02:52:34;;;;;;;3.72;3.42;;;19.50;40.10;;;;;;5081736;27;43446;-61
2022/03/01 02:55:03;;;;;;;3.20;3.00;;;19.50;40.20;;;;;;5084786;28;43369;-62
2022/03/01 02:57:31;;;;;;;3.25;3.05;;;19.50;40.30;;;;;;5084760;27;43474;-62
2022/03/01 02:59:58;;;;;;;3.80;3.50;;;19.50;40.30;;;;;;5078366;28;43778;-62
2022/03/01 03:02:26;;;;;;;3.30;3.00;;;19.40;40.10;;;;;;5081655;27;43513;-62
2022/03/01 03:04:54;;;;;;;3.60;3.40;;;19.40;40.10;;;;;;5084735;28;43491;-62
2022/03/01 03:07:21;;;;;;;3.97;3.60;;;19.40;40.80;;;;;;5080569;27;43489;-62
2022/03/01 03:09:49;;;;;;;4.00;3.60;;;19.40;40.20;;;;;;5078440;28;43791;-61
2022/03/01 03:12:16;;;;;;;3.78;3.47;;;19.40;40.20;;;;;;5079606;28;43486;-61
2022/03/01 03:14:44;;;;;;;3.58;3.28;;;19.40;40.20;;;;;;5080868;27;43423;-62
2022/03/01 03:17:11;;;;;;;3.35;3.15;;;19.30;40.20;;;;;;5082530;28;43481;-62
2022/03/01 03:19:39;;;;;;;3.55;3.25;;;19.30;40.30;;;;;;5080866;28;44850;-61
2022/03/01 03:22:06;;;;;;;3.40;3.20;;;19.30;40.20;;;;;;5081571;27;43707;-61
2022/03/01 03:24:34;;;;;;;3.33;3.08;;;19.30;40.30;;;;;;5082239;28;43547;-62
2022/03/01 03:27:02;;;;;;;3.53;3.33;;;19.30;40.30;;;;;;5084506;27;43476;-62
2022/03/01 03:29:29;;;;;;;3.80;3.50;;;19.30;40.30;;;;;;5078173;28;43600;-62
2022/03/01 03:31:57;;;;;;;3.70;3.40;;;19.30;40.30;;;;;;5084147;27;43451;-62
2022/03/01 03:34:25;;;;;;;3.70;3.40;;;19.30;40.30;;;;;;5084292;27;43560;-61
2022/03/01 03:36:53;;;;;;;3.60;3.30;;;19.30;40.30;;;;;;5081007;27;43592;-62
2022/03/01 03:39:21;;;;;;;3.78;3.28;;;19.20;40.30;;;;;;5077980;28;44685;-61
2022/03/01 03:41:51;;;;;;;3.78;3.47;;;19.20;40.30;;;;;;5083195;28;44014;-61
2022/03/01 03:44:18;;;;;;;3.58;3.28;;;19.20;40.60;;;;;;5084093;28;43468;-61
2022/03/01 03:46:47;;;;;;;3.47;3.20;;;19.20;40.30;;;;;;5081078;28;43556;-61
2022/03/01 03:49:15;;;;;;;3.47;3.17;;;19.20;40.30;;;;;;5080871;28;44867;-61
2022/03/01 03:51:42;;;;;;;3.50;3.20;;;19.20;40.40;;;;;;5084149;27;43948;-62
2022/03/01 03:54:10;;;;;;;3.15;2.95;;;19.20;40.30;;;;;;5080431;27;43517;-61
2022/03/01 03:56:38;;;;;;;3.53;3.22;;;19.10;40.30;;;;;;5083437;27;43387;-62
2022/03/01 03:59:07;;;;;;;3.88;3.58;;;19.20;40.30;;;;;;5080315;28;43935;-61
2022/03/01 04:01:35;;;;;;;3.70;3.40;;;19.10;40.40;;;;;;5082797;27;43482;-61
2022/03/01 04:04:04;;;;;;;3.50;3.20;;;19.10;40.30;;;;;;5080560;27;43437;-62
2022/03/01 04:06:32;;;;;;;3.67;3.38;;;19.10;40.40;;;;;;5078880;28;44005;-61
2022/03/01 04:09:00;;;;;;;3.55;3.25;;;19.10;40.30;;;;;;5080661;28;43595;-61
2022/03/01 04:11:27;;;;;;;3.63;3.33;;;19.10;40.30;;;;;;5083316;27;43493;-61
2022/03/01 04:13:55;;;;;;;3.58;3.28;;;19.10;40.40;;;;;;5083455;27;43465;-61
2022/03/01 04:16:23;;;;;;;3.70;3.50;;;19.10;40.40;;;;;;5083757;28;43587;-61
2022/03/01 04:18:51;;;;;;;3.50;3.20;;;19.10;40.40;;;;;;5080767;27;44195;-61
2022/03/01 04:21:18;;;;;;;3.78;3.40;;;19.00;40.30;;;;;;5080599;27;43383;-62
2022/03/01 04:23:46;;;;;;;3.58;3.30;;;19.10;40.40;;;;;;5083211;27;43549;-61
2022/03/01 04:26:14;;;;;;;3.63;3.33;;;19.00;40.40;;;;;;5080011;27;43398;-62
2022/03/01 04:28:42;;;;;;;3.60;3.30;;;19.00;40.40;;;;;;5082159;28;44008;-61
2022/03/01 04:31:10;;;;;;;3.67;3.38;;;19.00;40.40;;;;;;5083326;27;43518;-61
2022/03/01 04:33:38;;;;;;;3.58;3.28;;;19.00;40.50;;;;;;5083604;27;43582;-61
2022/03/01 04:36:07;;;;;;;3.60;3.30;;;19.00;40.40;;;;;;5082047;27;43691;-61
2022/03/01 04:38:34;;;;;;;3.83;3.47;;;19.00;40.50;;;;;;5082691;28;44069;-61
2022/03/01 04:41:02;;;;;;;3.95;3.65;;;18.90;40.40;;;;;;5076706;28;44010;-61
2022/03/01 04:43:30;;;;;;;3.88;3.13;;;19.00;40.40;;;;;;5079113;27;43505;-61
2022/03/01 04:45:57;;;;;;;3.63;3.33;;;18.90;40.40;;;;;;5080321;28;43589;-62
2022/03/01 04:48:25;;;;;;;3.58;3.28;;;18.90;40.40;;;;;;5082158;28;44080;-61
2022/03/01 04:50:53;;;;;;;3.53;3.28;;;18.90;40.40;;;;;;5076674;28;43542;-61
2022/03/01 04:53:20;;;;;;;3.67;3.38;;;18.90;40.40;;;;;;5080564;27;43397;-61
2022/03/01 04:55:48;;;;;;;3.70;3.40;;;18.90;40.40;;;;;;5080803;27;43698;-61
2022/03/01 04:58:18;;;;;;;3.70;3.40;;;18.90;40.40;;;;;;5082443;28;45085;-61
2022/03/01 05:00:46;;;;;;;3.67;3.38;;;18.90;40.50;;;;;;5079959;27;43762;-62
2022/03/01 05:03:14;;;;;;;3.75;3.45;;;18.80;40.50;;;;;;5079827;27;43444;-61
2022/03/01 05:05:42;;;;;;;3.60;3.30;;;18.90;40.50;;;;;;5081389;27;43538;-61
2022/03/01 05:08:09;;;;;;;3.70;3.40;;;18.80;40.50;;;;;;5082606;27;43838;-61
2022/03/01 05:10:36;;;;;;;3.50;3.20;;;18.80;40.50;;;;;;5079727;27;43600;-62
2022/03/01 05:13:09;;;;;;;4.10;3.80;;;18.80;40.50;;;;;;5079580;27;44101;-62
2022/03/01 05:15:36;;;;;;;3.50;3.25;;;18.80;40.60;;;;;;5082611;27;43478;-61
2022/03/01 05:18:04;;;;;;;3.80;3.50;;;18.80;40.60;;;;;;5076832;28;43815;-61
2022/03/01 05:20:31;;;;;;;3.60;3.35;;;18.80;40.60;;;;;;5079601;27;43505;-61
2022/03/01 05:22:59;;;;;;;3.55;3.20;;;18.80;40.60;;;;;;5082823;27;43441;-62
2022/03/01 05:25:26;;;;;;;3.55;3.30;;;18.80;40.60;;;;;;5080393;27;43441;-62
2022/03/01 05:27:54;;;;;;;3.53;3.22;;;18.80;40.50;;;;;;5079552;27;43749;-62
2022/03/01 05:30:24;;;;;;;3.53;3.22;;;18.80;40.60;;;;;;5082484;27;43509;-61
2022/03/01 05:32:52;;;;;;;3.42;3.15;;;18.80;40.60;;;;;;5082476;27;43417;-62
2022/03/01 05:35:26;;;;;;;3.35;3.15;;;18.70;40.50;;;;;;5079145;28;43593;-62
2022/03/01 05:37:55;;;;;;;3.55;3.25;;;18.80;40.60;;;;;;5082854;27;43865;-62
2022/03/01 05:40:26;;;;;;;3.50;3.20;;;18.80;40.50;;;;;;5082643;27;43388;-62
2022/03/01 05:42:54;;;;;;;3.03;2.83;;;18.80;40.50;;;;;;5079784;28;43491;-62
2022/03/01 05:45:24;;;;;;;3.42;3.13;;;18.80;40.50;;;;;;5083048;27;43471;-62
2022/03/01 05:47:53;;;;;;;3.50;3.20;;;18.80;40.50;;;;;;5086193;27;44915;-62
2022/03/01 05:50:21;;;;;;;3.47;3.17;;;18.80;40.50;;;;;;5082783;27;43490;-61
2022/03/01 05:52:50;;;;;;;3.67;3.38;;;18.70;40.40;;;;;;5085897;27;43517;-61
2022/03/01 05:55:18;;;;;;;3.80;3.40;;;18.70;40.40;;;;;;5085625;28;43454;-62
2022/03/01 05:57:45;;;;;;;3.67;3.40;;;18.70;40.40;;;;;;5084571;28;44708;-62
2022/03/01 06:00:16;;;;;;;3.15;2.95;;;18.80;40.50;;;;;;5084557;28;43424;-62
2022/03/01 06:02:45;;;;;;;3.60;3.30;;;18.70;40.40;;;;;;5082045;27;43526;-62
2022/03/01 06:05:15;;;;;;;3.58;3.28;;;18.70;40.40;;;;;;5086188;28;43654;-62
2022/03/01 06:07:44;;;;;;;3.20;2.95;;;18.70;40.50;;;;;;5084268;28;44905;-61
2022/03/01 06:10:12;;;;;;;3.70;3.40;;;18.70;40.50;;;;;;5082415;27;43564;-61
2022/03/01 06:12:40;;;;;;;3.42;3.13;;;18.70;40.50;;;;;;5085474;27;43455;-62
2022/03/01 06:15:08;;;;;;;3.30;3.10;;;18.70;40.50;;;;;;5085292;28;43498;-62
2022/03/01 06:17:36;;;;;;;4.10;3.25;;;18.70;40.50;;;;;;5083522;28;45253;-61
2022/03/01 06:20:08;;;;;;;3.42;3.20;;;18.70;40.70;;;;;;5082240;27;43671;-62
2022/03/01 06:22:37;;;;;;;3.55;3.20;;;18.70;40.70;;;;;;5082809;28;43483;-62
2022/03/01 06:25:05;;;;;;;3.38;3.17;;;18.60;40.70;;;;;;5081964;27;43490;-64
2022/03/01 06:27:35;;;;;;;3.80;3.10;;;18.60;40.70;;;;;;5077209;28;43935;-64
2022/03/01 06:30:04;;;;;;;3.58;3.28;;;18.60;40.70;;;;;;5081088;28;43532;-61
2022/03/01 06:32:32;;;;;;;3.58;3.30;;;18.60;40.70;;;;;;5085367;27;43485;-61
2022/03/01 06:35:01;;;;;;;3.65;3.35;;;18.60;40.70;;;;;;5080309;28;43490;-61
2022/03/01 06:37:35;;;;;;;3.50;3.20;;;18.60;40.80;;;;;;5085350;27;45123;-61
2022/03/01 06:40:06;;;;;;;3.50;3.20;;;18.60;40.80;;;;;;5081513;27;43437;-62
2022/03/01 06:42:34;;;;;;;3.45;3.25;;;18.70;40.80;;;;;;5084728;28;43433;-62
2022/03/01 06:45:03;;;;;;;3.60;3.30;;;18.60;40.80;;;;;;5081946;27;43596;-61
2022/03/01 06:47:30;;;;;;;4.03;3.47;;;18.70;40.90;;;;;;5085002;28;44638;-62
2022/03/01 06:49:59;;;;;;;3.53;3.10;;;18.70;40.90;;;;;;5084576;27;43467;-61
2022/03/01 06:52:26;;;;;;;3.60;3.30;;;18.70;40.90;;;;;;5082046;27;43530;-62
2022/03/01 06:54:54;;;;;;;5.03;3.40;;;18.70;40.90;;;;;;5084689;27;44222;-61
2022/03/01 06:57:21;;;;;;;3.50;3.20;;;18.70;40.90;;;;;;5084946;28;44710;-61
2022/03/01 06:59:53;;;;;;;3.53;3.22;;;18.70;40.90;;;;;;5081537;28;43797;-61
2022/03/01 07:02:22;;;;;;;3.58;3.28;;;18.70;41.00;;;;;;5080578;28;43432;-61
2022/03/01 07:04:50;;;;;;;3.40;3.10;;;18.70;41.00;;;;;;5084824;28;43611;-61
2022/03/01 07:07:17;;;;;;;3.55;3.28;;;18.70;40.90;;;;;;5082042;27;44065;-63
2022/03/01 07:09:45;;;;;;;3.03;2.80;;;18.70;41.00;;;;;;5078280;28;43915;-61
2022/03/01 07:12:12;;;;;;;3.75;3.20;;;18.70;41.00;;;;;;5081595;28;43491;-62
2022/03/01 07:14:40;;;;;;;3.35;3.15;;;18.70;41.00;;;;;;5081897;27;43397;-62
2022/03/01 07:17:07;;;;;;;3.25;3.03;;;18.70;41.10;;;;;;5083393;28;43970;-62
2022/03/01 07:19:35;;;;;;;3.03;2.83;;;18.70;41.00;;;;;;5080789;28;43399;-62
2022/03/01 07:22:02;;;;;;;3.28;3.08;;;18.70;41.00;;;;;;5081374;27;43575;-62
2022/03/01 07:24:30;;;;;;;3.38;3.17;;;18.70;41.00;;;;;;5078223;28;43455;-62
2022/03/01 07:26:57;;;;;;;3.28;3.00;;;18.80;41.70;;;;;;5081223;28;44410;-62
2022/03/01 07:29:25;;;;;;;3.22;3.00;;;18.80;41.10;;;;;;5078019;28;43505;-62
2022/03/01 07:31:53;;;;;;;3.40;3.10;;;18.80;41.10;;;;;;5081579;27;43420;-62
2022/03/01 07:34:25;;;;;;;3.13;2.92;;;18.80;41.00;;;;;;5082627;28;43441;-61
2022/03/01 07:36:53;;;;;;;3.33;3.13;;;18.80;41.00;;;;;;5079808;28;43928;-62
2022/03/01 07:39:20;;;;;;;3.25;2.85;;;18.90;40.90;;;;;;5084041;28;43691;-62
2022/03/01 07:41:48;;;;;;;3.40;3.10;;;18.90;41.00;;;;;;5081094;28;43436;-62
2022/03/01 07:44:17;;;;;;;3.30;3.00;;;18.90;41.00;;;;;;5083640;27;43478;-61
2022/03/01 07:46:45;;;;;;;3.50;3.20;;;18.90;40.90;;;;;;5080003;27;44584;-61
2022/03/01 07:49:13;;;;;;;3.13;2.83;;;18.90;41.00;;;;;;5080610;27;43925;-62
2022/03/01 07:51:40;;;;;;;3.50;3.20;;;18.90;40.90;;;;;;5084543;27;43475;-62
2022/03/01 07:54:08;;;;;;;3.10;2.90;;;18.90;40.90;;;;;;5083884;27;43526;-61
2022/03/01 07:56:35;;;;;;;3.60;3.30;;;18.90;41.00;;;;;;5082297;28;44690;-61
2022/03/01 07:59:03;;;;;;;3.60;3.30;;;18.90;40.90;;;;;;5102898;27;43556;-61
2022/03/01 08:01:30;;;;;;;3.85;3.45;;;18.90;40.90;;;;;;5077965;28;43642;-62
2022/03/01 08:03:58;;;;;;;3.78;3.47;;;19.00;41.00;;;;;;5076020;28;43446;-62
2022/03/01 08:06:26;;;;;;;4.10;3.35;;;19.00;41.00;;;;;;5075057;28;44814;-62
2022/03/01 08:08:54;;;;;;;3.30;2.95;;;19.00;40.90;;;;;;5081550;28;43560;-61
2022/03/01 08:11:21;;;;;;;3.83;3.42;;;19.00;40.90;;;;;;5082253;27;43440;-61
2022/03/01 08:13:48;;;;;;;4.47;3.20;;;19.00;41.00;;;;;;5081403;27;43557;-62
2022/03/01 08:16:16;;;;;;;3.40;3.10;;;19.10;41.00;;;;;;5077504;28;44724;-62
2022/03/01 08:18:44;;;;;;;3.05;2.85;;;19.10;41.00;;;;;;5080148;28;44167;-61
2022/03/01 08:21:11;;;;;;;3.40;3.10;;;19.10;40.90;;;;;;5081915;28;44036;-61
2022/03/01 08:23:39;;;;;;;3.40;3.10;;;19.10;40.90;;;;;;5083987;27;43627;-61
2022/03/01 08:26:07;;;;;;;3.50;3.20;;;19.10;41.00;;;;;;5074354;28;43576;-62
2022/03/01 08:28:34;;;;;;;3.70;3.40;;;19.10;41.00;;;;;;5080460;28;43958;-61
2022/03/01 08:31:01;;;;;;;3.40;3.10;;;19.10;41.00;;;;;;5083455;27;43497;-61
2022/03/01 08:33:29;;;;;;;3.97;3.08;;;19.10;41.00;;;;;;5083691;27;43450;-62
2022/03/01 08:35:57;;;;;;;3.28;3.00;;;19.10;40.90;;;;;;5082239;28;44662;-61
2022/03/01 08:38:25;;;;;;;3.60;3.20;;;19.20;40.90;;;;;;5081417;28;43678;-61
2022/03/01 08:40:54;;;;;;;4.28;3.30;;;19.20;40.90;;;;;;5080439;27;43439;-61
2022/03/01 08:43:22;;;;;;;3.47;3.17;;;19.20;40.90;;;;;;5081790;28;43470;-61
2022/03/01 08:45:50;;;;;;;3.40;3.10;;;19.20;41.00;;;;;;5080027;28;43983;-61
2022/03/01 08:48:18;;;;;;;3.10;2.90;;;19.20;40.90;;;;;;5081676;28;43520;-61
2022/03/01 08:50:46;;;;;;;3.63;3.33;;;19.30;41.00;;;;;;5079973;27;43459;-63
2022/03/01 08:53:16;;;;;;;3.50;3.20;;;19.30;40.90;;;;;;5079944;28;43465;-61
2022/03/01 08:55:44;;;;;;;3.63;3.33;;;19.30;41.10;;;;;;5080856;28;44064;-61
2022/03/01 08:58:12;;;;;;;3.78;3.47;;;19.30;41.10;;;;;;5064967;28;43523;-61
2022/03/01 09:00:40;;;;;;;3.50;3.20;;;19.30;41.20;;;;;;5075611;28;44071;-62
2022/03/01 09:03:08;;;;;;;3.40;3.10;;;19.30;41.20;;;;;;5079570;27;43616;-61
2022/03/01 09:05:36;;;;;;;3.80;3.20;;;19.30;41.10;;;;;;5080277;27;44987;-61
2022/03/01 09:08:04;;;;;;;3.40;3.10;;;19.30;41.10;;;;;;5079309;28;43657;-61
2022/03/01 09:10:32;;;;;;;3.28;2.97;;;19.30;41.00;;;;;;5078844;28;43417;-61
2022/03/01 09:13:00;;;;;;;3.30;2.90;;;19.40;41.20;;;;;;5083831;27;43432;-61
2022/03/01 09:15:31;;;;;;;3.15;2.85;;;19.40;41.20;;;;;;5085532;28;43786;-61
2022/03/01 09:18:00;;;;;;;3.63;3.20;;;19.40;41.10;;;;;;5086569;27;43485;-61
2022/03/01 09:20:29;;;;;;;3.40;3.10;;;19.50;41.30;;;;;;5086245;27;43584;-62
2022/03/01 09:22:57;;;;;;;3.50;3.20;;;19.50;41.30;;;;;;5079902;27;44005;-62
2022/03/01 09:25:25;;;;;;;3.40;3.10;;;19.50;41.30;;;;;;5082895;28;44023;-61
2022/03/01 09:27:53;;;;;;;3.20;2.92;;;19.50;41.40;;;;;;5078699;28;43540;-61
2022/03/01 09:30:20;;;;;;;3.35;3.03;;;19.60;41.30;;;;;;5086376;27;43417;-61
2022/03/01 09:32:48;;;;;;;3.53;3.22;;;19.60;41.30;;;;;;5085137;27;43577;-63
2022/03/01 09:35:17;;;;;;;3.15;2.88;;;19.60;41.20;;;;;;5081059;28;44158;-61
2022/03/01 09:37:45;;;;;;;3.33;3.03;;;19.60;41.20;;;;;;5086303;27;43528;-61
2022/03/01 09:40:14;;;;;;;3.58;3.10;;;19.70;41.20;;;;;;5082697;28;43586;-61
2022/03/01 09:42:43;;;;;;;3.50;3.20;;;19.70;41.10;;;;;;5086282;27;43607;-62
2022/03/01 09:45:13;;;;;;;3.35;3.10;;;19.70;41.10;;;;;;5084825;28;43790;-62
2022/03/01 09:47:41;;;;;;;3.90;3.50;;;19.80;41.10;;;;;;5081618;27;43359;-61
2022/03/01 09:50:09;;;;;;;3.47;3.13;;;19.80;41.20;;;;;;5086492;27;43566;-61
2022/03/01 09:52:38;;;;;;;3.58;3.28;;;19.80;41.10;;;;;;5082585;27;43612;-61
2022/03/01 09:55:07;;;;;;;3.30;2.92;;;19.80;41.00;;;;;;5081228;28;43958;-61
2022/03/01 09:57:37;;;;;;;3.65;3.35;;;19.80;41.00;;;;;;5082227;27;43526;-61
2022/03/01 10:00:06;;;;;;;3.63;3.33;;;19.80;41.10;;;;;;5081243;28;43461;-62
2022/03/01 10:02:42;;;;;;;3.90;3.03;;;19.80;41.00;;;;;;5082886;27;44003;-61
2022/03/01 10:05:12;;;;;;;3.33;3.08;;;19.80;41.00;;;;;;5082253;28;44679;-60
2022/03/01 10:07:45;;;;;;;3.55;3.25;;;19.80;40.90;;;;;;5085297;28;43456;-61
2022/03/01 10:10:16;;;;;;;3.83;3.20;;;19.90;41.00;;;;;;5082489;27;43505;-61
2022/03/01 10:12:54;;;;;;;3.13;2.83;;;20.00;41.00;;;;;;5084030;28;43592;-61
2022/03/01 10:15:29;;;;;;;3.47;3.17;;;20.00;41.00;;;;;;5079854;28;43611;-62
2022/03/01 10:17:57;;;;;;;5.10;3.50;;;20.00;41.00;;;;;;5081783;28;43992;-61
2022/03/01 10:20:25;;;;;;;4.75;3.08;;;20.00;41.00;;;;;;5085367;27;43429;-62
2022/03/01 10:22:57;;;;;;;3.38;3.10;;;20.00;41.00;;;;;;5082338;27;43997;-61
2022/03/01 10:25:26;;;;;;;3.60;3.30;;;20.00;41.00;;;;;;5081515;27;45254;-62
2022/03/01 10:27:54;;;;;;;3.58;3.28;;;20.10;41.00;;;;;;5082218;27;43494;-61
2022/03/01 10:30:34;;;;;;;4.20;3.17;;;20.10;40.80;;;;;;5081306;28;43506;-61
2022/03/01 10:33:16;;;;;;;3.70;3.40;;;20.10;40.90;;;;;;5081008;28;43679;-62
2022/03/01 10:35:56;;;;;;;3.67;3.30;;;20.10;40.90;;;;;;5082602;28;43564;-62
2022/03/01 10:38:25;;;;;;;4.07;3.07;;;20.20;41.00;;;;;;5081974;28;44006;-62
2022/03/01 10:40:57;;;;;;;3.33;3.03;;;20.20;40.90;;;;;;5085379;27;43442;-62
2022/03/01 10:43:27;;;;;;;3.88;3.55;;;20.20;41.00;;;;;;5081781;28;43429;-61
2022/03/01 10:45:56;;;;;;;3.70;3.13;;;20.20;40.90;;;;;;5082409;27;44042;-61
2022/03/01 10:48:37;;;;;;;3.67;3.33;;;20.20;40.90;;;;;;5084806;28;44001;-61
2022/03/01 10:51:08;;;;;;;3.70;3.40;;;20.30;40.90;;;;;;5077624;27;43513;-62
2022/03/01 10:53:40;;;;;;;3.40;3.05;;;20.40;40.80;;;;;;5085220;27;43509;-61
2022/03/01 10:56:08;;;;;;;;;;;20.40;40.80;;;;;;5081404;27;44068;-62
2022/03/01 10:58:37;;;;;;;3.88;3.40;;;20.40;40.70;;;;;;5082799;27;43493;-62
2022/03/01 11:01:06;;;;;;;3.50;3.20;;;20.40;41.50;;;;;;5077801;27;43523;-61
2022/03/01 11:03:34;;;;;;;3.53;3.22;;;20.40;40.70;;;;;;5081671;27;43628;-62
2022/03/01 11:06:04;;;;;;;4.00;3.33;;;20.50;40.80;;;;;;5081686;27;44072;-61
2022/03/01 11:08:33;;;;;;;3.70;3.40;;;20.50;41.50;;;;;;5080227;27;43471;-61
2022/03/01 11:11:03;;;;;;;3.83;3.35;;;20.50;40.70;;;;;;5084223;27;43477;-61
2022/03/01 11:13:35;;;;;;;3.50;3.20;;;20.60;40.70;;;;;;5082039;27;43727;-61
2022/03/01 11:16:33;;;;;;;4.45;3.25;;;20.60;40.70;;;;;;5084204;27;44058;-61
2022/03/01 11:19:40;;;;;;;3.78;3.47;;;20.70;40.70;;;;;;5078093;27;44627;-61
2022/03/01 11:22:44;;;;;;;3.40;3.10;;;20.70;40.60;;;;;;5083824;27;43566;-61
2022/03/01 11:25:23;;;;;;;3.65;3.35;;;20.80;40.70;;;;;;5078432;27;43691;-61
2022/03/01 11:27:53;;;;;;;4.50;3.15;;;20.80;40.70;;;;;;5081524;27;44092;-63
2022/03/01 11:30:33;;;;;;;3.50;3.25;;;20.80;40.60;;;;;;5079571;27;43503;-64
2022/03/01 11:33:01;;;;;;;4.10;3.70;;;20.80;40.60;;;;;;5081379;27;43448;-65
2022/03/01 11:35:30;;;;;;;3.70;3.40;;;20.90;40.60;;;;;;5073755;27;43561;-64
2022/03/01 11:38:05;;;;;;;3.95;3.55;;;20.90;40.60;;;;;;5079356;27;44152;-65
2022/03/01 11:40:45;;;;;;;3.85;3.30;;;21.00;40.60;;;;;;5074576;27;43444;-64
2022/03/01 11:43:16;;;;;;;3.83;3.47;;;21.00;40.50;;;;;;5081950;27;43458;-64
2022/03/01 11:45:46;;;;;;;3.13;2.83;;;21.00;40.50;;;;;;5082060;27;43556;-64
2022/03/01 11:48:22;;;;;;;3.72;3.30;;;21.00;40.50;;;;;;5082739;27;43866;-64
2022/03/01 11:50:57;;;;;;;3.58;3.10;;;21.00;40.50;;;;;;5081423;27;43701;-62
2022/03/01 11:53:29;;;;;;;3.67;2.92;;;21.10;40.60;;;;;;5083883;27;43502;-61
2022/03/01 11:55:58;;;;;;;3.38;3.08;;;21.10;40.50;;;;;;5082010;27;43533;-62
2022/03/01 11:58:27;;;;;;;4.00;3.45;;;21.10;40.50;;;;;;5081768;27;44995;-62
2022/03/01 12:00:56;;;;;;;3.58;3.28;;;21.20;40.50;;;;;;5079966;27;43515;-62
2022/03/01 12:03:29;;;;;;;3.67;3.38;;;21.20;40.50;;;;;;5077780;27;43441;-62
2022/03/01 12:05:58;;;;;;;4.05;3.65;;;21.20;40.40;;;;;;5080529;27;43564;-61
2022/03/01 12:08:28;;;;;;;3.83;3.22;;;21.30;40.80;;;;;;5081873;27;44271;-62
2022/03/01 12:10:57;;;;;;;3.92;3.50;;;21.30;40.50;;;;;;5081785;27;43595;-62
2022/03/01 12:13:44;;;;;;;3.90;3.38;;;21.30;40.50;;;;;;5081047;27;43439;-61
2022/03/01 12:16:14;;;;;;;3.60;3.30;;;21.30;40.40;;;;;;5076451;27;43540;-62
2022/03/01 12:18:42;;;;;;;4.00;3.40;;;21.40;40.50;;;;;;5073037;27;44015;-62
2022/03/01 12:21:12;;;;;;;4.00;3.60;;;21.40;40.50;;;;;;5077042;27;43731;-62
2022/03/01 12:23:42;;;;;;;3.60;3.30;;;21.40;40.40;;;;;;5083825;27;43504;-62
2022/03/01 12:26:12;;;;;;;3.83;3.53;;;21.50;40.50;;;;;;5083690;27;43664;-62
2022/03/01 12:28:44;;;;;;;3.83;3.47;;;21.50;40.50;;;;;;5082765;27;44335;-62
2022/03/01 12:31:15;;;;;;;3.70;3.40;;;21.40;40.40;;;;;;5064507;27;43444;-62
2022/03/01 12:33:53;;;;;;;4.30;3.60;;;21.50;40.40;;;;;;5081135;27;43558;-62
2022/03/01 12:36:30;;;;;;;3.83;3.53;;;21.50;40.40;;;;;;5081962;27;43493;-62
2022/03/01 12:39:01;;;;;;;3.60;3.30;;;21.60;40.40;;;;;;5075868;27;43861;-62
2022/03/01 12:41:29;;;;;;;4.00;3.50;;;21.60;40.40;;;;;;5078142;27;43492;-61
2022/03/01 12:43:59;;;;;;;4.07;3.67;;;21.60;40.40;;;;;;5075329;27;43501;-62
2022/03/01 12:46:29;;;;;;;4.15;3.75;;;21.60;40.30;;;;;;5082689;27;43491;-62
2022/03/01 12:48:58;;;;;;;3.85;3.55;;;21.70;40.40;;;;;;5079479;27;43897;-62
2022/03/01 12:51:28;;;;;;;4.80;3.70;;;21.70;40.30;;;;;;5087704;27;43488;-62
2022/03/01 12:53:58;;;;;;;3.90;3.60;;;21.70;40.30;;;;;;5081237;27;43455;-61
2022/03/01 12:56:32;;;;;;;4.13;3.77;;;21.70;40.20;;;;;;5078397;27;44022;-62
2022/03/01 12:59:06;;;;;;;3.78;3.47;;;21.70;40.20;;;;;;5098804;27;45791;-61